sensor_id;sensor_type;location;lat;lon;timestamp;temperature;humidity
7413;DHT22;3748;48.136;11.538;2023-01-31T00:19:28;1.90;99.90
7413;DHT22;3748;48.136;11.538;2023-01-31T00:24:30;1.90;99.90
7413;DHT22;3748;48.136;11.538;2023-01-31T00:26:57;4.00;99.90
7413;DHT22;3748;48.136;11.538;2023-01-31T00:31:59;1.90;99.90
7413;DHT22;3748;48.136;11.538;2023-01-31T00:34:28;1.40;99.90
7413;DHT22;3748;48.136;11.538;2023-01-31T00:36:55;2.20;99.90
7413;DHT22;3748;48.136;11.538;2023-01-31T00:39:22;3.60;99.90
7413;DHT22;3748;48.136;11.538;2023-01-31T00:41:49;1.90;99.90
7413;DHT22;3748;48.136;11.538;2023-01-31T00:44:16;1.70;99.90
7413;DHT22;3748;48.136;11.538;2023-01-31T00:46:43;1.60;99.90
7413;DHT22;3748;48.136;11.538;2023-01-31T00:49:10;2.30;99.90
7413;DHT22;3748;48.136;11.538;2023-01-31T00:51:39;2.10;99.90
7413;DHT22;3748;48.136;11.538;2023-01-31T00:54:06;3.00;99.90
7413;DHT22;3748;48.136;11.538;2023-01-31T00:56:33;1.80;99.90
7413;DHT22;3748;48.136;11.538;2023-01-31T01:06:47;1.90;99.90
7413;DHT22;3748;48.136;11.538;2023-01-31T01:09:15;2.10;99.90
7413;DHT22;3748;48.136;11.538;2023-01-31T01:11:42;2.10;99.90
7413;DHT22;3748;48.136;11.538;2023-01-31T01:14:08;1.90;99.90
7413;DHT22;3748;48.136;11.538;2023-01-31T01:16:37;1.70;99.90
7413;DHT22;3748;48.136;11.538;2023-01-31T01:19:05;1.70;99.90
7413;DHT22;3748;48.136;11.538;2023-01-31T01:21:33;1.70;99.90
7413;DHT22;3748;48.136;11.538;2023-01-31T01:24:07;2.10;99.90
7413;DHT22;3748;48.136;11.538;2023-01-31T01:26:34;1.80;99.90
7413;DHT22;3748;48.136;11.538;2023-01-31T01:29:01;3.70;99.90
7413;DHT22;3748;48.136;11.538;2023-01-31T01:31:29;1.70;99.90
7413;DHT22;3748;48.136;11.538;2023-01-31T01:34:00;1.70;99.90
7413;DHT22;3748;48.136;11.538;2023-01-31T01:36:27;2.20;99.90
7413;DHT22;3748;48.136;11.538;2023-01-31T01:38:54;2.40;99.90
7413;DHT22;3748;48.136;11.538;2023-01-31T01:41:23;3.40;99.90
7413;DHT22;3748;48.136;11.538;2023-01-31T01:43:51;1.20;99.90
7413;DHT22;3748;48.136;11.538;2023-01-31T01:46:23;3.60;99.90
7413;DHT22;3748;48.136;11.538;2023-01-31T01:48:54;1.80;99.90
7413;DHT22;3748;48.136;11.538;2023-01-31T01:51:22;1.60;99.90
7413;DHT22;3748;48.136;11.538;2023-01-31T01:53:52;1.80;99.90
7413;DHT22;3748;48.136;11.538;2023-01-31T01:56:24;1.80;99.90
7413;DHT22;3748;48.136;11.538;2023-01-31T01:58:55;1.70;99.90
7413;DHT22;3748;48.136;11.538;2023-01-31T02:01:27;1.90;99.90
7413;DHT22;3748;48.136;11.538;2023-01-31T02:03:54;1.90;99.90
7413;DHT22;3748;48.136;11.538;2023-01-31T02:06:21;2.00;99.90
7413;DHT22;3748;48.136;11.538;2023-01-31T02:08:48;1.70;99.90
7413;DHT22;3748;48.136;11.538;2023-01-31T02:11:20;1.60;99.90
7413;DHT22;3748;48.136;11.538;2023-01-31T02:18:59;1.70;99.90
7413;DHT22;3748;48.136;11.538;2023-01-31T02:30:00;1.60;99.90
7413;DHT22;3748;48.136;11.538;2023-01-31T02:32:44;1.90;99.90
7413;DHT22;3748;48.136;11.538;2023-01-31T02:35:23;1.70;99.90
7413;DHT22;3748;48.136;11.538;2023-01-31T02:38:00;1.40;99.90
7413;DHT22;3748;48.136;11.538;2023-01-31T02:40:36;1.60;99.90
7413;DHT22;3748;48.136;11.538;2023-01-31T02:43:10;1.60;99.90
7413;DHT22;3748;48.136;11.538;2023-01-31T02:45:45;1.60;99.90
7413;DHT22;3748;48.136;11.538;2023-01-31T02:48:20;1.40;99.90
7413;DHT22;3748;48.136;11.538;2023-01-31T02:50:58;2.00;99.90
7413;DHT22;3748;48.136;11.538;2023-01-31T02:53:29;2.00;99.90
7413;DHT22;3748;48.136;11.538;2023-01-31T02:56:00;1.70;99.90
7413;DHT22;3748;48.136;11.538;2023-01-31T03:16:53;1.60;99.90
7413;DHT22;3748;48.136;11.538;2023-01-31T03:19:45;1.30;99.90
7413;DHT22;3748;48.136;11.538;2023-01-31T03:24:49;1.60;99.90
7413;DHT22;3748;48.136;11.538;2023-01-31T03:27:17;1.50;99.90
7413;DHT22;3748;48.136;11.538;2023-01-31T03:32:25;1.50;99.90
7413;DHT22;3748;48.136;11.538;2023-01-31T03:34:53;1.20;99.90
7413;DHT22;3748;48.136;11.538;2023-01-31T03:37:29;1.40;99.90
7413;DHT22;3748;48.136;11.538;2023-01-31T03:40:03;1.50;99.90
7413;DHT22;3748;48.136;11.538;2023-01-31T03:53:33;1.50;99.90
7413;DHT22;3748;48.136;11.538;2023-01-31T03:56:03;1.20;99.90
7413;DHT22;3748;48.136;11.538;2023-01-31T03:58:36;1.20;99.90
7413;DHT22;3748;48.136;11.538;2023-01-31T04:01:06;1.20;99.90
7413;DHT22;3748;48.136;11.538;2023-01-31T04:03:38;0.80;99.90
7413;DHT22;3748;48.136;11.538;2023-01-31T04:06:06;1.20;99.90
7413;DHT22;3748;48.136;11.538;2023-01-31T04:14:24;1.20;99.90
7413;DHT22;3748;48.136;11.538;2023-01-31T04:16:51;2.30;99.90
7413;DHT22;3748;48.136;11.538;2023-01-31T04:19:18;1.50;99.90
7413;DHT22;3748;48.136;11.538;2023-01-31T04:21:45;0.90;99.90
7413;DHT22;3748;48.136;11.538;2023-01-31T04:24:13;1.40;99.90
7413;DHT22;3748;48.136;11.538;2023-01-31T04:26:40;2.60;99.90
7413;DHT22;3748;48.136;11.538;2023-01-31T04:29:07;1.00;99.90
7413;DHT22;3748;48.136;11.538;2023-01-31T04:31:49;3.10;99.90
7413;DHT22;3748;48.136;11.538;2023-01-31T04:34:22;0.90;99.90
7413;DHT22;3748;48.136;11.538;2023-01-31T04:36:58;1.20;99.90
7413;DHT22;3748;48.136;11.538;2023-01-31T04:39:25;1.00;99.90
7413;DHT22;3748;48.136;11.538;2023-01-31T04:41:52;0.70;99.90
7413;DHT22;3748;48.136;11.538;2023-01-31T04:44:19;0.90;99.90
7413;DHT22;3748;48.136;11.538;2023-01-31T04:46:46;0.90;99.90
7413;DHT22;3748;48.136;11.538;2023-01-31T04:49:14;2.20;99.90
7413;DHT22;3748;48.136;11.538;2023-01-31T04:51:55;0.90;99.90
7413;DHT22;3748;48.136;11.538;2023-01-31T04:54:22;0.90;99.90
7413;DHT22;3748;48.136;11.538;2023-01-31T04:56:53;3.00;99.90
7413;DHT22;3748;48.136;11.538;2023-01-31T04:59:34;2.20;99.90
7413;DHT22;3748;48.136;11.538;2023-01-31T05:02:01;1.30;99.90
7413;DHT22;3748;48.136;11.538;2023-01-31T05:04:45;0.80;99.90
7413;DHT22;3748;48.136;11.538;2023-01-31T05:07:12;1.10;99.90
7413;DHT22;3748;48.136;11.538;2023-01-31T05:09:46;0.90;99.90
7413;DHT22;3748;48.136;11.538;2023-01-31T05:12:16;1.20;99.90
7413;DHT22;3748;48.136;11.538;2023-01-31T05:14:43;0.90;99.90
7413;DHT22;3748;48.136;11.538;2023-01-31T05:17:12;0.80;99.90
7413;DHT22;3748;48.136;11.538;2023-01-31T05:20:03;0.90;99.90
7413;DHT22;3748;48.136;11.538;2023-01-31T05:22:30;0.70;99.90
7413;DHT22;3748;48.136;11.538;2023-01-31T05:24:57;0.90;99.90
7413;DHT22;3748;48.136;11.538;2023-01-31T05:27:24;0.90;99.90
7413;DHT22;3748;48.136;11.538;2023-01-31T05:29:51;0.90;99.90
7413;DHT22;3748;48.136;11.538;2023-01-31T05:32:18;0.90;99.90
7413;DHT22;3748;48.136;11.538;2023-01-31T05:42:32;1.00;99.90
7413;DHT22;3748;48.136;11.538;2023-01-31T05:44:59;1.00;99.90
7413;DHT22;3748;48.136;11.538;2023-01-31T05:47:26;1.10;99.90
7413;DHT22;3748;48.136;11.538;2023-01-31T05:49:53;1.00;99.90
7413;DHT22;3748;48.136;11.538;2023-01-31T05:52:20;1.00;99.90
7413;DHT22;3748;48.136;11.538;2023-01-31T05:54:47;1.00;99.90
7413;DHT22;3748;48.136;11.538;2023-01-31T05:57:14;2.70;99.90
7413;DHT22;3748;48.136;11.538;2023-01-31T05:59:42;2.60;99.90
7413;DHT22;3748;48.136;11.538;2023-01-31T06:17:42;0.90;99.90
7413;DHT22;3748;48.136;11.538;2023-01-31T07:25:23;0.80;99.90
7413;DHT22;3748;48.136;11.538;2023-01-31T08:09:17;1.20;99.90
7413;DHT22;3748;48.136;11.538;2023-01-31T08:11:44;1.20;99.90
7413;DHT22;3748;48.136;11.538;2023-01-31T08:19:27;1.00;99.90
7413;DHT22;3748;48.136;11.538;2023-01-31T08:24:48;1.10;99.90
7413;DHT22;3748;48.136;11.538;2023-01-31T08:40:13;1.30;99.90
7413;DHT22;3748;48.136;11.538;2023-01-31T08:42:40;1.80;99.90
7413;DHT22;3748;48.136;11.538;2023-01-31T08:45:08;1.20;99.90
7413;DHT22;3748;48.136;11.538;2023-01-31T08:47:35;1.60;99.90
7413;DHT22;3748;48.136;11.538;2023-01-31T08:52:38;1.50;99.90
7413;DHT22;3748;48.136;11.538;2023-01-31T08:55:06;1.70;99.90
7413;DHT22;3748;48.136;11.538;2023-01-31T08:57:36;1.80;99.90
7413;DHT22;3748;48.136;11.538;2023-01-31T09:00:04;1.70;99.90
7413;DHT22;3748;48.136;11.538;2023-01-31T09:02:30;1.80;99.90
7413;DHT22;3748;48.136;11.538;2023-01-31T09:04:57;1.90;99.90
7413;DHT22;3748;48.136;11.538;2023-01-31T09:07:24;1.10;99.90
7413;DHT22;3748;48.136;11.538;2023-01-31T09:09:51;1.80;99.90
7413;DHT22;3748;48.136;11.538;2023-01-31T09:12:19;2.10;99.90
7413;DHT22;3748;48.136;11.538;2023-01-31T09:15:04;3.20;99.90
7413;DHT22;3748;48.136;11.538;2023-01-31T09:17:31;2.10;99.90
7413;DHT22;3748;48.136;11.538;2023-01-31T09:19:58;1.70;99.90
7413;DHT22;3748;48.136;11.538;2023-01-31T09:22:29;2.20;99.90
7413;DHT22;3748;48.136;11.538;2023-01-31T09:24:56;2.20;99.90
7413;DHT22;3748;48.136;11.538;2023-01-31T09:27:23;1.90;99.90
7413;DHT22;3748;48.136;11.538;2023-01-31T09:29:49;1.90;99.90
7413;DHT22;3748;48.136;11.538;2023-01-31T09:32:18;2.00;99.90
7413;DHT22;3748;48.136;11.538;2023-01-31T09:34:46;2.90;99.90
7413;DHT22;3748;48.136;11.538;2023-01-31T09:37:13;2.70;99.90
7413;DHT22;3748;48.136;11.538;2023-01-31T09:39:40;2.20;99.90
7413;DHT22;3748;48.136;11.538;2023-01-31T09:42:16;2.30;99.90
7413;DHT22;3748;48.136;11.538;2023-01-31T09:44:52;2.60;99.90
7413;DHT22;3748;48.136;11.538;2023-01-31T09:47:25;2.50;99.90
7413;DHT22;3748;48.136;11.538;2023-01-31T09:49:56;2.40;99.90
7413;DHT22;3748;48.136;11.538;2023-01-31T09:54:59;2.60;99.90
7413;DHT22;3748;48.136;11.538;2023-01-31T09:57:35;2.70;99.90
7413;DHT22;3748;48.136;11.538;2023-01-31T10:00:20;2.60;99.90
7413;DHT22;3748;48.136;11.538;2023-01-31T10:03:08;2.30;99.90
7413;DHT22;3748;48.136;11.538;2023-01-31T10:05:46;3.50;99.90
7413;DHT22;3748;48.136;11.538;2023-01-31T10:08:20;2.90;99.90
7413;DHT22;3748;48.136;11.538;2023-01-31T10:10:55;3.70;99.90
7413;DHT22;3748;48.136;11.538;2023-01-31T10:21:21;3.00;99.90
7413;DHT22;3748;48.136;11.538;2023-01-31T10:31:40;2.80;99.90
7413;DHT22;3748;48.136;11.538;2023-01-31T10:34:13;3.90;99.90
7413;DHT22;3748;48.136;11.538;2023-01-31T10:39:23;3.20;99.90
7413;DHT22;3748;48.136;11.538;2023-01-31T10:42:05;2.20;99.90
7413;DHT22;3748;48.136;11.538;2023-01-31T10:44:43;3.90;99.90
7413;DHT22;3748;48.136;11.538;2023-01-31T10:47:15;3.80;99.90
7413;DHT22;3748;48.136;11.538;2023-01-31T10:49:45;2.50;99.90
7413;DHT22;3748;48.136;11.538;2023-01-31T10:52:34;3.00;99.90
7413;DHT22;3748;48.136;11.538;2023-01-31T10:55:25;1.10;99.90
7413;DHT22;3748;48.136;11.538;2023-01-31T10:57:56;2.60;99.90
7413;DHT22;3748;48.136;11.538;2023-01-31T11:00:27;4.10;99.90
7413;DHT22;3748;48.136;11.538;2023-01-31T11:26:27;2.50;99.90
7413;DHT22;3748;48.136;11.538;2023-01-31T11:28:56;2.80;99.90
7413;DHT22;3748;48.136;11.538;2023-01-31T11:39:24;2.50;99.90
7413;DHT22;3748;48.136;11.538;2023-01-31T11:41:52;2.10;99.90
7413;DHT22;3748;48.136;11.538;2023-01-31T11:46:56;2.50;99.90
7413;DHT22;3748;48.136;11.538;2023-01-31T11:49:30;4.10;99.90
7413;DHT22;3748;48.136;11.538;2023-01-31T11:54:35;2.70;99.90
7413;DHT22;3748;48.136;11.538;2023-01-31T12:10:00;2.70;99.90
7413;DHT22;3748;48.136;11.538;2023-01-31T12:17:43;2.70;99.90
7413;DHT22;3748;48.136;11.538;2023-01-31T12:22:50;2.80;99.90
7413;DHT22;3748;48.136;11.538;2023-01-31T12:25:27;2.60;99.90
7413;DHT22;3748;48.136;11.538;2023-01-31T12:28:25;3.10;99.90
7413;DHT22;3748;48.136;11.538;2023-01-31T12:31:13;1.90;99.90
7413;DHT22;3748;48.136;11.538;2023-01-31T12:33:53;2.90;99.90
7413;DHT22;3748;48.136;11.538;2023-01-31T12:39:12;2.70;99.90
7413;DHT22;3748;48.136;11.538;2023-01-31T12:41:51;2.50;99.90
7413;DHT22;3748;48.136;11.538;2023-01-31T12:44:41;3.10;99.90
7413;DHT22;3748;48.136;11.538;2023-01-31T12:47:29;2.80;99.90
7413;DHT22;3748;48.136;11.538;2023-01-31T12:50:20;2.80;99.90
7413;DHT22;3748;48.136;11.538;2023-01-31T12:53:11;2.70;99.90
7413;DHT22;3748;48.136;11.538;2023-01-31T12:55:49;2.80;99.90
7413;DHT22;3748;48.136;11.538;2023-01-31T12:58:33;2.90;99.90
7413;DHT22;3748;48.136;11.538;2023-01-31T13:01:05;3.00;99.90
7413;DHT22;3748;48.136;11.538;2023-01-31T13:06:32;3.40;99.90
7413;DHT22;3748;48.136;11.538;2023-01-31T13:09:05;3.30;99.90
7413;DHT22;3748;48.136;11.538;2023-01-31T13:11:39;3.10;99.90
7413;DHT22;3748;48.136;11.538;2023-01-31T13:14:13;3.40;99.90
7413;DHT22;3748;48.136;11.538;2023-01-31T13:16:46;3.40;99.90
7413;DHT22;3748;48.136;11.538;2023-01-31T13:19:18;3.40;99.90
7413;DHT22;3748;48.136;11.538;2023-01-31T13:21:51;3.90;99.90
7413;DHT22;3748;48.136;11.538;2023-01-31T13:24:23;4.10;99.90
7413;DHT22;3748;48.136;11.538;2023-01-31T13:29:34;4.20;99.90
7413;DHT22;3748;48.136;11.538;2023-01-31T13:34:40;3.70;99.90
7413;DHT22;3748;48.136;11.538;2023-01-31T13:37:13;5.00;99.90
7413;DHT22;3748;48.136;11.538;2023-01-31T13:39:48;6.80;99.90
7413;DHT22;3748;48.136;11.538;2023-01-31T13:42:16;4.30;99.90
7413;DHT22;3748;48.136;11.538;2023-01-31T13:44:46;4.90;99.90
7413;DHT22;3748;48.136;11.538;2023-01-31T13:47:19;3.80;99.90
7413;DHT22;3748;48.136;11.538;2023-01-31T13:49:50;2.50;99.90
7413;DHT22;3748;48.136;11.538;2023-01-31T13:52:24;3.80;99.90
7413;DHT22;3748;48.136;11.538;2023-01-31T13:54:55;3.00;99.90
7413;DHT22;3748;48.136;11.538;2023-01-31T14:00:08;3.40;99.90
7413;DHT22;3748;48.136;11.538;2023-01-31T14:02:36;4.10;99.90
7413;DHT22;3748;48.136;11.538;2023-01-31T14:18:01;3.50;99.90
7413;DHT22;3748;48.136;11.538;2023-01-31T14:20:31;3.10;99.90
7413;DHT22;3748;48.136;11.538;2023-01-31T14:23:30;3.30;99.90
7413;DHT22;3748;48.136;11.538;2023-01-31T14:25:58;3.30;99.90
7413;DHT22;3748;48.136;11.538;2023-01-31T14:28:25;2.40;99.90
7413;DHT22;3748;48.136;11.538;2023-01-31T14:30:54;2.50;99.90
7413;DHT22;3748;48.136;11.538;2023-01-31T14:33:31;3.30;99.90
7413;DHT22;3748;48.136;11.538;2023-01-31T14:45:41;3.30;99.90
7413;DHT22;3748;48.136;11.538;2023-01-31T14:51:26;3.50;99.90
7413;DHT22;3748;48.136;11.538;2023-01-31T14:54:21;3.70;99.90
7413;DHT22;3748;48.136;11.538;2023-01-31T14:57:12;3.70;99.90
7413;DHT22;3748;48.136;11.538;2023-01-31T14:59:45;3.20;99.90
7413;DHT22;3748;48.136;11.538;2023-01-31T15:02:44;3.10;99.90
7413;DHT22;3748;48.136;11.538;2023-01-31T15:05:16;3.30;99.90
7413;DHT22;3748;48.136;11.538;2023-01-31T15:08:08;3.30;99.90
7413;DHT22;3748;48.136;11.538;2023-01-31T15:10:58;3.40;99.90
7413;DHT22;3748;48.136;11.538;2023-01-31T15:13:50;3.30;99.90
7413;DHT22;3748;48.136;11.538;2023-01-31T15:16:20;3.40;99.90
7413;DHT22;3748;48.136;11.538;2023-01-31T15:18:52;3.40;99.90
7413;DHT22;3748;48.136;11.538;2023-01-31T15:21:24;3.10;99.90
7413;DHT22;3748;48.136;11.538;2023-01-31T15:23:53;3.40;99.90
7413;DHT22;3748;48.136;11.538;2023-01-31T15:26:21;3.70;99.90
7413;DHT22;3748;48.136;11.538;2023-01-31T15:28:51;3.00;99.90
7413;DHT22;3748;48.136;11.538;2023-01-31T15:31:22;3.20;99.90
7413;DHT22;3748;48.136;11.538;2023-01-31T15:33:55;3.30;99.90
7413;DHT22;3748;48.136;11.538;2023-01-31T15:36:28;3.30;99.90
7413;DHT22;3748;48.136;11.538;2023-01-31T15:38:59;3.30;99.90
7413;DHT22;3748;48.136;11.538;2023-01-31T15:41:36;3.30;99.90
7413;DHT22;3748;48.136;11.538;2023-01-31T15:44:12;3.30;99.90
7413;DHT22;3748;48.136;11.538;2023-01-31T15:46:43;3.30;99.90
7413;DHT22;3748;48.136;11.538;2023-01-31T15:49:22;3.30;99.90
7413;DHT22;3748;48.136;11.538;2023-01-31T15:52:09;3.10;99.90
7413;DHT22;3748;48.136;11.538;2023-01-31T15:54:37;3.40;99.90
7413;DHT22;3748;48.136;11.538;2023-01-31T15:57:09;3.30;99.90
7413;DHT22;3748;48.136;11.538;2023-01-31T15:59:39;3.20;99.90
7413;DHT22;3748;48.136;11.538;2023-01-31T16:02:18;3.30;99.90
7413;DHT22;3748;48.136;11.538;2023-01-31T16:04:46;3.30;99.90
7413;DHT22;3748;48.136;11.538;2023-01-31T16:07:17;3.10;99.90
7413;DHT22;3748;48.136;11.538;2023-01-31T16:09:43;3.30;99.90
7413;DHT22;3748;48.136;11.538;2023-01-31T16:12:11;3.20;99.90
7413;DHT22;3748;48.136;11.538;2023-01-31T16:14:39;3.20;99.90
7413;DHT22;3748;48.136;11.538;2023-01-31T16:17:33;3.20;99.90
7413;DHT22;3748;48.136;11.538;2023-01-31T16:20:00;3.40;99.90
7413;DHT22;3748;48.136;11.538;2023-01-31T16:22:30;3.90;99.90
7413;DHT22;3748;48.136;11.538;2023-01-31T16:24:58;4.70;99.90
7413;DHT22;3748;48.136;11.538;2023-01-31T16:27:27;3.40;99.90
7413;DHT22;3748;48.136;11.538;2023-01-31T16:29:57;3.20;99.90
7413;DHT22;3748;48.136;11.538;2023-01-31T16:32:33;3.00;99.90
7413;DHT22;3748;48.136;11.538;2023-01-31T16:40:23;3.40;99.90
7413;DHT22;3748;48.136;11.538;2023-01-31T16:43:10;3.90;99.90
7413;DHT22;3748;48.136;11.538;2023-01-31T16:58:50;3.40;99.90
7413;DHT22;3748;48.136;11.538;2023-01-31T17:01:20;3.40;99.90
7413;DHT22;3748;48.136;11.538;2023-01-31T17:04:04;6.60;99.90
7413;DHT22;3748;48.136;11.538;2023-01-31T17:09:14;3.60;99.90
7413;DHT22;3748;48.136;11.538;2023-01-31T17:14:18;3.40;99.90
7413;DHT22;3748;48.136;11.538;2023-01-31T17:16:45;4.00;99.90
7413;DHT22;3748;48.136;11.538;2023-01-31T17:19:15;5.50;99.90
7413;DHT22;3748;48.136;11.538;2023-01-31T17:21:43;4.00;99.90
7413;DHT22;3748;48.136;11.538;2023-01-31T17:26:45;3.50;99.90
7413;DHT22;3748;48.136;11.538;2023-01-31T17:29:12;3.70;99.90
7413;DHT22;3748;48.136;11.538;2023-01-31T17:31:41;5.40;99.90
7413;DHT22;3748;48.136;11.538;2023-01-31T17:34:11;3.50;99.90
7413;DHT22;3748;48.136;11.538;2023-01-31T17:36:39;6.20;99.90
7413;DHT22;3748;48.136;11.538;2023-01-31T17:41:41;3.50;99.90
7413;DHT22;3748;48.136;11.538;2023-01-31T17:44:18;7.00;99.90
7413;DHT22;3748;48.136;11.538;2023-01-31T17:49:25;3.50;99.90
7413;DHT22;3748;48.136;11.538;2023-01-31T17:51:53;4.00;99.90
7413;DHT22;3748;48.136;11.538;2023-01-31T18:02:04;3.50;99.90
7413;DHT22;3748;48.136;11.538;2023-01-31T18:04:32;3.20;99.90
7413;DHT22;3748;48.136;11.538;2023-01-31T18:06:59;3.60;99.90
7413;DHT22;3748;48.136;11.538;2023-01-31T18:11:59;3.50;99.90
7413;DHT22;3748;48.136;11.538;2023-01-31T18:14:26;5.70;99.90
7413;DHT22;3748;48.136;11.538;2023-01-31T18:16:55;3.50;99.90
7413;DHT22;3748;48.136;11.538;2023-01-31T18:19:25;4.20;99.90
7413;DHT22;3748;48.136;11.538;2023-01-31T18:21:54;3.30;99.90
7413;DHT22;3748;48.136;11.538;2023-01-31T18:24:22;3.60;99.90
7413;DHT22;3748;48.136;11.538;2023-01-31T18:26:49;3.00;99.90
7413;DHT22;3748;48.136;11.538;2023-01-31T18:29:16;5.00;99.90
7413;DHT22;3748;48.136;11.538;2023-01-31T18:31:45;3.80;99.90
7413;DHT22;3748;48.136;11.538;2023-01-31T18:34:12;3.50;99.90
7413;DHT22;3748;48.136;11.538;2023-01-31T18:36:39;5.90;99.90
7413;DHT22;3748;48.136;11.538;2023-01-31T18:39:08;2.50;99.90
7413;DHT22;3748;48.136;11.538;2023-01-31T18:41:35;3.60;99.90
7413;DHT22;3748;48.136;11.538;2023-01-31T18:44:02;6.30;99.90
7413;DHT22;3748;48.136;11.538;2023-01-31T18:46:30;3.50;99.90
7413;DHT22;3748;48.136;11.538;2023-01-31T18:48:56;3.50;99.90
7413;DHT22;3748;48.136;11.538;2023-01-31T18:51:23;3.50;99.90
7413;DHT22;3748;48.136;11.538;2023-01-31T18:53:50;3.70;99.90
7413;DHT22;3748;48.136;11.538;2023-01-31T18:58:54;3.60;99.90
7413;DHT22;3748;48.136;11.538;2023-01-31T19:01:22;3.80;99.90
7413;DHT22;3748;48.136;11.538;2023-01-31T19:03:51;4.70;99.90
7413;DHT22;3748;48.136;11.538;2023-01-31T19:06:20;3.60;99.90
7413;DHT22;3748;48.136;11.538;2023-01-31T19:08:48;3.80;99.90
7413;DHT22;3748;48.136;11.538;2023-01-31T19:11:16;3.60;99.90
7413;DHT22;3748;48.136;11.538;2023-01-31T19:13:44;3.60;99.90
7413;DHT22;3748;48.136;11.538;2023-01-31T19:16:15;3.60;99.90
7413;DHT22;3748;48.136;11.538;2023-01-31T19:18:42;3.50;99.90
7413;DHT22;3748;48.136;11.538;2023-01-31T19:21:13;3.60;99.90
7413;DHT22;3748;48.136;11.538;2023-01-31T19:23:40;3.50;99.90
7413;DHT22;3748;48.136;11.538;2023-01-31T19:26:06;3.60;99.90
7413;DHT22;3748;48.136;11.538;2023-01-31T19:28:34;3.60;99.90
7413;DHT22;3748;48.136;11.538;2023-01-31T19:33:40;4.60;99.90
7413;DHT22;3748;48.136;11.538;2023-01-31T19:36:08;4.30;99.90
7413;DHT22;3748;48.136;11.538;2023-01-31T19:38:35;3.70;99.90
7413;DHT22;3748;48.136;11.538;2023-01-31T19:41:04;4.50;99.90
7413;DHT22;3748;48.136;11.538;2023-01-31T19:51:31;3.70;99.90
7413;DHT22;3748;48.136;11.538;2023-01-31T19:53:59;3.70;99.90
7413;DHT22;3748;48.136;11.538;2023-01-31T19:59:02;3.80;99.90
7413;DHT22;3748;48.136;11.538;2023-01-31T20:01:30;5.00;99.90
7413;DHT22;3748;48.136;11.538;2023-01-31T20:03:57;4.30;99.90
7413;DHT22;3748;48.136;11.538;2023-01-31T20:06:27;3.80;99.90
7413;DHT22;3748;48.136;11.538;2023-01-31T20:08:59;3.70;99.90
7413;DHT22;3748;48.136;11.538;2023-01-31T20:11:28;3.60;99.90
7413;DHT22;3748;48.136;11.538;2023-01-31T20:13:56;3.50;99.90
7413;DHT22;3748;48.136;11.538;2023-01-31T20:16:23;3.90;99.90
7413;DHT22;3748;48.136;11.538;2023-01-31T20:18:50;3.60;99.90
7413;DHT22;3748;48.136;11.538;2023-01-31T20:21:20;3.80;99.90
7413;DHT22;3748;48.136;11.538;2023-01-31T20:23:47;3.70;99.90
7413;DHT22;3748;48.136;11.538;2023-01-31T20:26:16;3.60;99.90
7413;DHT22;3748;48.136;11.538;2023-01-31T20:28:44;3.80;99.90
7413;DHT22;3748;48.136;11.538;2023-01-31T20:31:13;3.60;99.90
7413;DHT22;3748;48.136;11.538;2023-01-31T20:33:40;3.60;99.90
7413;DHT22;3748;48.136;11.538;2023-01-31T20:36:08;3.60;99.90
7413;DHT22;3748;48.136;11.538;2023-01-31T20:38:36;3.60;99.90
7413;DHT22;3748;48.136;11.538;2023-01-31T20:41:04;3.60;99.90
7413;DHT22;3748;48.136;11.538;2023-01-31T20:43:33;3.60;99.90
7413;DHT22;3748;48.136;11.538;2023-01-31T20:46:01;3.40;99.90
7413;DHT22;3748;48.136;11.538;2023-01-31T20:48:29;3.40;99.90
7413;DHT22;3748;48.136;11.538;2023-01-31T20:50:56;3.50;99.90
7413;DHT22;3748;48.136;11.538;2023-01-31T22:19:39;3.10;99.90
7413;DHT22;3748;48.136;11.538;2023-01-31T22:22:06;3.10;99.90
7413;DHT22;3748;48.136;11.538;2023-01-31T22:24:33;3.10;99.90
7413;DHT22;3748;48.136;11.538;2023-01-31T22:27:00;3.10;99.90
7413;DHT22;3748;48.136;11.538;2023-01-31T22:29:27;3.10;99.90
7413;DHT22;3748;48.136;11.538;2023-01-31T22:31:54;3.10;99.90
7413;DHT22;3748;48.136;11.538;2023-01-31T22:34:21;3.10;99.90
7413;DHT22;3748;48.136;11.538;2023-01-31T22:36:50;3.10;99.90
7413;DHT22;3748;48.136;11.538;2023-01-31T22:39:16;3.20;99.90
7413;DHT22;3748;48.136;11.538;2023-01-31T22:41:43;3.20;99.90
7413;DHT22;3748;48.136;11.538;2023-01-31T22:44:10;3.10;99.90
7413;DHT22;3748;48.136;11.538;2023-01-31T22:46:37;3.10;99.90
7413;DHT22;3748;48.136;11.538;2023-01-31T22:49:04;3.10;99.90
7413;DHT22;3748;48.136;11.538;2023-01-31T22:51:30;3.20;99.90
7413;DHT22;3748;48.136;11.538;2023-01-31T22:53:59;3.20;99.90
7413;DHT22;3748;48.136;11.538;2023-01-31T22:56:27;3.10;99.90
7413;DHT22;3748;48.136;11.538;2023-01-31T22:58:54;3.60;99.90
7413;DHT22;3748;48.136;11.538;2023-01-31T23:01:24;3.20;99.90
7413;DHT22;3748;48.136;11.538;2023-01-31T23:03:55;3.30;99.90
7413;DHT22;3748;48.136;11.538;2023-01-31T23:06:24;3.30;99.90
7413;DHT22;3748;48.136;11.538;2023-01-31T23:08:51;3.30;99.90
7413;DHT22;3748;48.136;11.538;2023-01-31T23:11:20;3.30;99.90
7413;DHT22;3748;48.136;11.538;2023-01-31T23:13:47;3.30;99.90
7413;DHT22;3748;48.136;11.538;2023-01-31T23:16:16;3.30;99.90
7413;DHT22;3748;48.136;11.538;2023-01-31T23:18:45;3.30;99.90
7413;DHT22;3748;48.136;11.538;2023-01-31T23:21:14;3.40;99.90
7413;DHT22;3748;48.136;11.538;2023-01-31T23:23:41;3.40;99.90
7413;DHT22;3748;48.136;11.538;2023-01-31T23:26:09;3.40;99.90
7413;DHT22;3748;48.136;11.538;2023-01-31T23:28:37;3.40;99.90
7413;DHT22;3748;48.136;11.538;2023-01-31T23:31:04;3.40;99.90
7413;DHT22;3748;48.136;11.538;2023-01-31T23:33:31;3.40;99.90
7413;DHT22;3748;48.136;11.538;2023-01-31T23:35:58;3.40;99.90
7413;DHT22;3748;48.136;11.538;2023-01-31T23:38:25;3.40;99.90
7413;DHT22;3748;48.136;11.538;2023-01-31T23:40:52;3.50;99.90
7413;DHT22;3748;48.136;11.538;2023-01-31T23:43:20;3.30;99.90
7413;DHT22;3748;48.136;11.538;2023-01-31T23:45:48;3.40;99.90
7413;DHT22;3748;48.136;11.538;2023-01-31T23:48:15;3.40;99.90
7413;DHT22;3748;48.136;11.538;2023-01-31T23:50:42;3.40;99.90
7413;DHT22;3748;48.136;11.538;2023-01-31T23:53:09;3.60;99.90
7413;DHT22;3748;48.136;11.538;2023-01-31T23:55:36;3.50;99.90
7413;DHT22;3748;48.136;11.538;2023-01-31T23:58:03;3.50;99.90
